createdAt,value
2016-12-13T00:00:25.063Z,80.02
2016-12-13T00:01:25.074Z,79.73
2016-12-13T00:02:25.092Z,79.73
2016-12-13T00:03:25.106Z,79.83
2016-12-13T00:04:25.122Z,80.02
2016-12-13T00:05:25.134Z,80.49
2016-12-13T00:06:25.145Z,79.73
2016-12-13T00:07:25.162Z,80.11
2016-12-13T00:08:25.177Z,80.02
2016-12-13T00:09:25.190Z,80.11
2016-12-13T00:10:25.208Z,80.02
2016-12-13T00:11:25.217Z,79.83
2016-12-13T00:12:25.231Z,80.11
2016-12-13T00:13:25.244Z,79.92
2016-12-13T00:14:25.261Z,79.92
2016-12-13T00:15:25.274Z,79.92
2016-12-13T00:16:25.599Z,79.92
2016-12-13T00:17:25.300Z,80.02
2016-12-13T00:18:25.315Z,79.83
2016-12-13T00:19:25.327Z,79.63
2016-12-13T00:20:25.344Z,80.11
2016-12-13T00:21:25.356Z,79.83
2016-12-13T00:22:25.372Z,79.83
2016-12-13T00:23:25.382Z,80.02
2016-12-13T00:24:25.400Z,79.73
2016-12-13T00:25:25.416Z,79.63
2016-12-13T00:26:25.427Z,79.92
2016-12-13T00:27:25.438Z,79.73
2016-12-13T00:28:25.458Z,79.83
2016-12-13T00:29:25.468Z,80.02
2016-12-13T00:30:25.485Z,79.83
2016-12-13T00:31:25.495Z,80.02
2016-12-13T00:32:25.506Z,80.02
2016-12-13T00:33:25.523Z,79.92
2016-12-13T00:34:25.536Z,79.83
2016-12-13T00:35:25.552Z,79.54
2016-12-13T00:36:25.567Z,79.92
2016-12-13T00:37:25.580Z,79.73
2016-12-13T00:38:25.594Z,79.92
2016-12-13T00:39:25.607Z,79.92
2016-12-13T00:40:25.622Z,80.21
2016-12-13T00:41:25.635Z,79.83
2016-12-13T00:42:25.684Z,79.54
2016-12-13T00:43:25.665Z,80.21
2016-12-13T00:44:25.675Z,80.11
2016-12-13T00:45:25.692Z,79.73
2016-12-13T00:46:25.700Z,79.73
2016-12-13T00:47:25.715Z,79.83
2016-12-13T00:48:25.731Z,79.73
2016-12-13T00:49:25.744Z,79.73
2016-12-13T00:50:25.758Z,79.63
2016-12-13T00:51:25.775Z,79.63
2016-12-13T00:52:25.789Z,79.83
2016-12-13T00:53:25.800Z,79.83
2016-12-13T00:54:25.816Z,79.83
2016-12-13T00:55:25.829Z,79.63
2016-12-13T00:56:25.844Z,79.83
2016-12-13T00:57:25.855Z,79.83
2016-12-13T00:58:25.866Z,80.3
2016-12-13T00:59:25.890Z,79.83
2016-12-13T01:00:25.899Z,79.92
2016-12-13T01:01:25.908Z,80.02
2016-12-13T01:02:25.926Z,80.02
2016-12-13T01:03:25.944Z,79.92
2016-12-13T01:04:25.953Z,80.11
2016-12-13T01:05:25.968Z,79.73
2016-12-13T01:06:25.981Z,79.73
2016-12-13T01:07:25.995Z,79.83
2016-12-13T01:08:26.009Z,79.92
2016-12-13T01:09:26.028Z,80.02
2016-12-13T01:10:26.133Z,80.21
2016-12-13T01:11:26.052Z,80.11
2016-12-13T01:12:26.064Z,80.02
2016-12-13T01:13:26.079Z,79.92
2016-12-13T01:14:26.093Z,80.02
2016-12-13T01:15:26.106Z,79.92
2016-12-13T01:16:26.121Z,79.83
2016-12-13T01:17:26.134Z,79.92
2016-12-13T01:18:26.146Z,80.21
2016-12-13T01:19:26.165Z,80.3
2016-12-13T01:20:26.174Z,79.92
2016-12-13T01:21:26.193Z,80.3
2016-12-13T01:22:26.206Z,80.11
2016-12-13T01:23:26.217Z,79.92
2016-12-13T01:24:26.233Z,79.92
2016-12-13T01:25:26.245Z,79.83
2016-12-13T01:26:26.259Z,80.11
2016-12-13T01:27:26.274Z,79.73
2016-12-13T01:28:26.288Z,79.92
2016-12-13T01:29:26.300Z,80.21
2016-12-13T01:30:26.314Z,79.73
2016-12-13T01:31:26.329Z,79.92
2016-12-13T01:32:26.342Z,79.83
2016-12-13T01:33:26.672Z,79.92
2016-12-13T01:34:26.370Z,80.11
2016-12-13T01:35:26.385Z,79.92
2016-12-13T01:36:26.400Z,79.92
2016-12-13T01:37:26.413Z,79.83
2016-12-13T01:38:26.427Z,79.83
2016-12-13T01:39:26.441Z,79.92
2016-12-13T01:40:26.456Z,79.92
2016-12-13T01:41:26.471Z,80.02
2016-12-13T01:42:26.482Z,79.92
2016-12-13T01:43:26.504Z,79.92
2016-12-13T01:44:26.510Z,79.73
2016-12-13T01:45:26.530Z,79.83
2016-12-13T01:46:26.538Z,79.92
2016-12-13T01:47:26.554Z,80.11
2016-12-13T01:48:26.566Z,79.92
2016-12-13T01:49:26.584Z,80.3
2016-12-13T01:50:26.594Z,79.92
2016-12-13T01:51:26.611Z,80.02
2016-12-13T01:52:26.625Z,80.21
2016-12-13T01:53:26.638Z,79.63
2016-12-13T01:54:26.653Z,79.92
2016-12-13T01:55:26.665Z,80.11
2016-12-13T01:56:26.676Z,79.54
2016-12-13T01:57:26.692Z,80.11
2016-12-13T01:58:26.706Z,80.11
2016-12-13T01:59:26.723Z,79.92
2016-12-13T02:00:26.734Z,79.35
2016-12-13T02:01:26.752Z,79.54
2016-12-13T02:02:26.792Z,79.54
2016-12-13T02:03:26.778Z,79.54
2016-12-13T02:04:26.789Z,79.83
2016-12-13T02:05:26.806Z,79.73
2016-12-13T02:06:26.816Z,79.54
2016-12-13T02:07:26.833Z,79.35
2016-12-13T02:08:26.845Z,79.54
2016-12-13T02:09:26.859Z,79.83
2016-12-13T02:10:26.871Z,79.63
2016-12-13T02:11:26.889Z,79.63
2016-12-13T02:12:26.900Z,79.44
2016-12-13T02:13:26.913Z,79.63
2016-12-13T02:14:26.929Z,79.44
2016-12-13T02:15:26.962Z,79.54
2016-12-13T02:16:27.010Z,79.35
2016-12-13T02:17:27.001Z,79.54
2016-12-13T02:18:26.982Z,79.44
2016-12-13T02:19:27.003Z,79.44
2016-12-13T02:20:27.030Z,79.54
2016-12-13T02:21:27.025Z,79.83
2016-12-13T02:22:27.042Z,79.63
2016-12-13T02:23:27.130Z,79.44
2016-12-13T02:24:27.066Z,79.73
2016-12-13T02:25:27.078Z,79.73
2016-12-13T02:26:27.096Z,79.63
2016-12-13T02:27:27.112Z,79.63
2016-12-13T02:28:27.126Z,79.73
2016-12-13T02:29:27.136Z,79.83
2016-12-13T02:30:27.150Z,79.54
2016-12-13T02:31:27.165Z,79.63
2016-12-13T02:32:27.183Z,79.73
2016-12-13T02:33:27.192Z,79.92
2016-12-13T02:34:27.203Z,79.44
2016-12-13T02:35:27.223Z,79.63
2016-12-13T02:36:27.235Z,79.83
2016-12-13T02:37:27.248Z,79.63
2016-12-13T02:38:27.262Z,79.54
2016-12-13T02:39:27.277Z,79.54
2016-12-13T02:40:27.292Z,79.73
2016-12-13T02:41:27.306Z,79.73
2016-12-13T02:42:27.326Z,80.11
2016-12-13T02:43:27.335Z,79.44
2016-12-13T02:44:27.347Z,80.3
2016-12-13T02:45:27.363Z,80.11
2016-12-13T02:46:27.376Z,80.02
2016-12-13T02:47:27.412Z,79.83
2016-12-13T02:48:27.406Z,79.54
2016-12-13T02:49:27.417Z,80.11
2016-12-13T02:50:27.490Z,80.11
2016-12-13T02:51:27.451Z,79.92
2016-12-13T02:52:27.463Z,79.54
2016-12-13T02:53:27.473Z,79.73
2016-12-13T02:54:27.483Z,79.63
2016-12-13T02:55:27.502Z,79.63
2016-12-13T02:56:27.518Z,79.73
2016-12-13T02:57:27.527Z,79.54
2016-12-13T02:58:27.540Z,79.44
2016-12-13T02:59:27.556Z,79.44
2016-12-13T03:00:27.571Z,79.63
2016-12-13T03:01:27.587Z,79.63
2016-12-13T03:02:27.599Z,79.63
2016-12-13T03:03:27.613Z,79.73
2016-12-13T03:04:27.626Z,79.63
2016-12-13T03:05:27.635Z,79.63
2016-12-13T03:06:27.655Z,79.63
2016-12-13T03:07:27.669Z,79.54
2016-12-13T03:08:27.685Z,79.63
2016-12-13T03:09:27.691Z,79.63
2016-12-13T03:10:27.712Z,79.54
2016-12-13T03:11:27.723Z,79.83
2016-12-13T03:12:27.735Z,79.63
2016-12-13T03:13:27.754Z,79.83
2016-12-13T03:14:27.765Z,79.83
2016-12-13T03:15:27.781Z,79.63
2016-12-13T03:16:27.792Z,79.63
2016-12-13T03:17:27.804Z,79.73
2016-12-13T03:18:27.822Z,79.35
2016-12-13T03:19:27.832Z,79.44
2016-12-13T03:20:27.846Z,79.54
2016-12-13T03:21:27.863Z,79.35
2016-12-13T03:22:27.879Z,79.54
2016-12-13T03:23:27.889Z,79.63
2016-12-13T03:24:27.903Z,79.25
2016-12-13T03:25:27.917Z,79.63
2016-12-13T03:26:27.932Z,79.16
2016-12-13T03:27:27.945Z,79.35
2016-12-13T03:28:27.960Z,79.63
2016-12-13T03:29:27.978Z,79.35
2016-12-13T03:30:27.990Z,79.73
2016-12-13T03:31:28.002Z,79.73
2016-12-13T03:32:28.015Z,79.44
2016-12-13T03:33:28.026Z,79.54
2016-12-13T03:34:28.041Z,79.83
2016-12-13T03:35:28.056Z,79.54
2016-12-13T03:36:28.073Z,79.83
2016-12-13T03:37:28.085Z,79.63
2016-12-13T03:38:28.098Z,79.63
2016-12-13T03:39:28.206Z,79.63
2016-12-13T03:40:28.213Z,79.73
2016-12-13T03:41:28.377Z,79.83
2016-12-13T03:42:28.362Z,79.83
2016-12-13T03:43:28.394Z,80.02
2016-12-13T03:44:28.393Z,79.25
2016-12-13T03:45:28.327Z,79.54
2016-12-13T03:46:28.336Z,79.35
2016-12-13T03:47:28.527Z,79.73
2016-12-13T03:48:28.346Z,79.16
2016-12-13T03:49:28.352Z,79.25
2016-12-13T03:50:28.362Z,79.25
2016-12-13T03:51:28.371Z,79.35
2016-12-13T03:52:28.581Z,79.44
2016-12-13T03:53:28.510Z,79.54
2016-12-13T03:54:28.522Z,79.44
2016-12-13T03:55:28.530Z,79.54
2016-12-13T03:56:28.443Z,79.44
2016-12-13T03:57:28.504Z,79.63
2016-12-13T03:58:28.450Z,79.44
2016-12-13T03:59:28.461Z,79.44
2016-12-13T04:00:28.506Z,79.16
2016-12-13T04:01:28.517Z,79.35
2016-12-13T04:02:28.626Z,79.44
2016-12-13T04:03:28.523Z,79.63
2016-12-13T04:04:28.532Z,79.25
2016-12-13T04:05:28.564Z,79.35
2016-12-13T04:06:28.571Z,79.54
2016-12-13T04:07:28.604Z,79.44
2016-12-13T04:08:28.580Z,79.63
2016-12-13T04:09:28.532Z,79.73
2016-12-13T04:10:28.541Z,79.35
2016-12-13T04:11:28.555Z,79.35
2016-12-13T04:12:28.570Z,79.35
2016-12-13T04:13:28.582Z,79.63
2016-12-13T04:14:28.601Z,79.63
2016-12-13T04:15:28.614Z,79.16
2016-12-13T04:16:28.630Z,79.44
2016-12-13T04:17:28.754Z,79.16
2016-12-13T04:18:28.655Z,79.35
2016-12-13T04:19:28.672Z,79.35
2016-12-13T04:20:28.684Z,79.35
2016-12-13T04:21:28.696Z,79.35
2016-12-13T04:22:28.716Z,79.54
2016-12-13T04:23:28.724Z,79.35
2016-12-13T04:24:28.853Z,79.25
2016-12-13T04:25:28.756Z,79.35
2016-12-13T04:26:28.765Z,79.16
2016-12-13T04:27:28.897Z,79.44
2016-12-13T04:28:28.795Z,79.06
2016-12-13T04:29:28.808Z,79.16
2016-12-13T04:30:28.820Z,79.44
2016-12-13T04:31:28.837Z,79.63
2016-12-13T04:32:28.846Z,79.63
2016-12-13T04:33:28.861Z,79.63
2016-12-13T04:34:28.878Z,79.54
2016-12-13T04:35:28.891Z,79.35
2016-12-13T04:36:28.904Z,79.54
2016-12-13T04:37:28.919Z,79.44
2016-12-13T04:38:28.936Z,79.44
2016-12-13T04:39:28.943Z,79.44
2016-12-13T04:40:28.960Z,79.63
2016-12-13T04:41:28.973Z,79.44
2016-12-13T04:42:28.989Z,79.63
2016-12-13T04:43:29.003Z,78.78
2016-12-13T04:44:29.018Z,79.16
2016-12-13T04:45:29.144Z,78.88
2016-12-13T04:46:29.043Z,78.69
2016-12-13T04:47:29.059Z,79.06
2016-12-13T04:48:29.073Z,78.78
2016-12-13T04:49:29.185Z,78.97
2016-12-13T04:50:29.099Z,79.25
2016-12-13T04:51:29.111Z,78.59
2016-12-13T04:52:29.126Z,79.16
2016-12-13T04:53:29.142Z,78.78
2016-12-13T04:54:29.153Z,79.16
2016-12-13T04:55:29.181Z,78.78
2016-12-13T04:56:29.182Z,78.69
2016-12-13T04:57:29.193Z,78.59
2016-12-13T04:58:29.216Z,78.59
2016-12-13T04:59:29.224Z,78.5
2016-12-13T05:00:29.240Z,78.59
2016-12-13T05:01:29.253Z,78.59
2016-12-13T05:02:29.266Z,78.3
2016-12-13T05:03:29.282Z,78.5
2016-12-13T05:04:29.300Z,78.4
2016-12-13T05:05:29.309Z,78.3
2016-12-13T05:06:29.323Z,78.69
2016-12-13T05:07:29.336Z,78.59
2016-12-13T05:08:29.351Z,78.78
2016-12-13T05:09:29.365Z,78.59
2016-12-13T05:10:29.377Z,78.21
2016-12-13T05:11:29.392Z,78.69
2016-12-13T05:12:29.408Z,78.4
2016-12-13T05:13:29.419Z,78.69
2016-12-13T05:14:29.436Z,78.59
2016-12-13T05:15:29.451Z,78.4
2016-12-13T05:16:29.461Z,78.59
2016-12-13T05:17:29.524Z,78.97
2016-12-13T05:18:29.490Z,78.88
2016-12-13T05:19:29.503Z,78.97
2016-12-13T05:20:29.516Z,78.88
2016-12-13T05:21:29.531Z,78.4
2016-12-13T05:22:29.548Z,78.21
2016-12-13T05:23:29.561Z,78.21
2016-12-13T05:24:29.574Z,78.3
2016-12-13T05:25:29.584Z,78.21
2016-12-13T05:26:29.688Z,78.4
2016-12-13T05:27:29.614Z,78.3
2016-12-13T05:28:29.803Z,78.21
2016-12-13T05:29:29.832Z,78.08
2016-12-13T05:30:29.655Z,78.83
2016-12-13T05:31:29.670Z,78.69
2016-12-13T05:32:29.683Z,78.83
2016-12-13T05:33:29.702Z,79.06
2016-12-13T05:34:29.708Z,78.17
2016-12-13T05:35:29.728Z,78.21
2016-12-13T05:36:29.740Z,77.98
2016-12-13T05:37:29.752Z,78.17
2016-12-13T05:38:29.766Z,78.21
2016-12-13T05:39:29.788Z,78.36
2016-12-13T05:40:29.796Z,78.59
2016-12-13T05:41:29.808Z,78.83
2016-12-13T05:42:29.821Z,78.17
2016-12-13T05:43:29.842Z,78.17
2016-12-13T05:44:29.849Z,78.55
2016-12-13T05:45:29.863Z,78.55
2016-12-13T05:46:29.876Z,78.93
2016-12-13T05:47:29.893Z,78.83
2016-12-13T05:48:29.902Z,78.45
2016-12-13T05:49:29.925Z,78.93
2016-12-13T05:50:30.019Z,78.17
2016-12-13T05:51:29.943Z,78.55
2016-12-13T05:52:30.081Z,78.55
2016-12-13T05:53:29.974Z,78.55
2016-12-13T05:54:29.987Z,78.74
2016-12-13T05:55:30.001Z,78.45
2016-12-13T05:56:30.012Z,78.45
2016-12-13T05:57:30.028Z,78.55
2016-12-13T05:58:30.041Z,78.55
2016-12-13T05:59:30.056Z,78.74
2016-12-13T06:00:30.077Z,78.93
2016-12-13T06:01:30.083Z,78.36
2016-12-13T06:02:30.103Z,78.55
2016-12-13T06:03:30.110Z,78.93
2016-12-13T06:04:30.120Z,78.93
2016-12-13T06:05:30.139Z,78.36
2016-12-13T06:06:30.153Z,78.55
2016-12-13T06:07:30.165Z,78.36
2016-12-13T06:08:30.178Z,78.64
2016-12-13T06:09:30.194Z,78.93
2016-12-13T06:10:30.204Z,78.93
2016-12-13T06:11:30.223Z,79.12
2016-12-13T06:12:30.237Z,79.03
2016-12-13T06:13:30.257Z,78.93
2016-12-13T06:14:30.376Z,78.93
2016-12-13T06:15:30.284Z,78.93
2016-12-13T06:16:30.289Z,79.22
2016-12-13T06:17:30.306Z,78.93
2016-12-13T06:18:30.312Z,78.64
2016-12-13T06:19:30.330Z,78.93
2016-12-13T06:20:30.342Z,79.12
2016-12-13T06:21:30.367Z,79.22
2016-12-13T06:22:30.440Z,78.93
2016-12-13T06:23:30.390Z,78.74
2016-12-13T06:24:30.400Z,79.03
2016-12-13T06:25:30.416Z,78.55
2016-12-13T06:26:30.431Z,78.74
2016-12-13T06:27:30.759Z,78.83
2016-12-13T06:28:30.451Z,78.74
2016-12-13T06:29:30.471Z,79.31
2016-12-13T06:30:30.480Z,79.12
2016-12-13T06:31:30.497Z,78.93
2016-12-13T06:32:30.508Z,78.83
2016-12-13T06:33:30.639Z,79.41
2016-12-13T06:34:30.544Z,79.6
2016-12-13T06:35:30.552Z,78.64
2016-12-13T06:36:30.566Z,78.93
2016-12-13T06:37:30.690Z,79.5
2016-12-13T06:38:30.589Z,79.41
2016-12-13T06:39:30.608Z,79.31
2016-12-13T06:40:30.616Z,79.69
2016-12-13T06:41:30.641Z,79.41
2016-12-13T06:42:30.652Z,79.22
2016-12-13T06:43:30.659Z,79.31
2016-12-13T06:44:30.671Z,79.41
2016-12-13T06:45:30.690Z,79.22
2016-12-13T06:46:30.698Z,79.22
2016-12-13T06:47:30.717Z,79.03
2016-12-13T06:48:30.725Z,79.69
2016-12-13T06:49:30.742Z,79.5
2016-12-13T06:50:30.750Z,79.41
2016-12-13T06:51:30.770Z,79.12
2016-12-13T06:52:30.784Z,79.41
2016-12-13T06:53:31.118Z,79.25
2016-12-13T06:54:30.805Z,79.12
2016-12-13T06:55:30.825Z,79.69
2016-12-13T06:56:30.831Z,79.41
2016-12-13T06:57:31.163Z,79.22
2016-12-13T06:58:30.865Z,79.22
2016-12-13T06:59:30.878Z,79.41
2016-12-13T07:00:30.886Z,79.5
2016-12-13T07:01:30.912Z,79.5
2016-12-13T07:02:30.923Z,79.41
2016-12-13T07:03:30.933Z,79.41
2016-12-13T07:04:31.103Z,79.22
2016-12-13T07:05:31.115Z,79.22
2016-12-13T07:06:31.122Z,79.5
2016-12-13T07:07:30.982Z,79.63
2016-12-13T07:08:31.049Z,79.44
2016-12-13T07:09:31.010Z,79.63
2016-12-13T07:10:31.025Z,79.6
2016-12-13T07:11:31.040Z,79.35
2016-12-13T07:12:31.063Z,79.5
2016-12-13T07:13:31.065Z,79.5
2016-12-13T07:14:31.107Z,79.31
2016-12-13T07:15:31.093Z,79.44
2016-12-13T07:16:31.225Z,79.54
2016-12-13T07:17:31.230Z,79.73
2016-12-13T07:18:31.134Z,79.41
2016-12-13T07:19:31.150Z,79.63
2016-12-13T07:20:31.159Z,79.5
2016-12-13T07:21:31.174Z,79.41
2016-12-13T07:22:31.189Z,79.44
2016-12-13T07:23:31.207Z,79.6
2016-12-13T07:24:31.215Z,79.41
2016-12-13T07:25:31.229Z,79.41
2016-12-13T07:26:31.398Z,79.35
2016-12-13T07:27:31.347Z,79.41
2016-12-13T07:28:31.270Z,79.44
2016-12-13T07:29:31.284Z,79.25
2016-12-13T07:30:31.305Z,79.63
2016-12-13T07:31:31.318Z,79.54
2016-12-13T07:32:31.323Z,79.83
2016-12-13T07:33:31.344Z,79.54
2016-12-13T07:34:31.554Z,79.83
2016-12-13T07:35:31.372Z,79.73
2016-12-13T07:36:31.383Z,79.63
2016-12-13T07:37:31.391Z,79.63
2016-12-13T07:38:31.406Z,79.63
2016-12-13T07:39:31.422Z,79.73
2016-12-13T07:40:31.445Z,79.63
2016-12-13T07:41:31.459Z,79.63
2016-12-13T07:42:31.465Z,79.63
2016-12-13T07:43:31.479Z,79.35
2016-12-13T07:44:31.492Z,79.44
2016-12-13T07:45:31.504Z,79.44
2016-12-13T07:46:31.516Z,79.44
2016-12-13T07:47:31.640Z,79.63
2016-12-13T07:48:31.668Z,79.35
2016-12-13T07:49:31.560Z,79.54
2016-12-13T07:50:31.571Z,79.63
2016-12-13T07:51:31.587Z,79.63
2016-12-13T07:52:31.600Z,79.44
2016-12-13T07:53:31.617Z,79.73
2016-12-13T07:54:31.631Z,79.44
2016-12-13T07:55:31.643Z,79.54
2016-12-13T07:56:31.754Z,79.44
2016-12-13T07:57:31.762Z,79.35
2016-12-13T07:58:31.684Z,79.44
2016-12-13T07:59:31.696Z,79.25
2016-12-13T08:00:31.714Z,79.54
2016-12-13T08:01:31.725Z,79.92
2016-12-13T08:02:31.820Z,80.11
2016-12-13T08:03:31.763Z,79.83
2016-12-13T08:04:31.764Z,79.63
2016-12-13T08:05:31.776Z,80.11
2016-12-13T08:06:31.797Z,80.02
2016-12-13T08:07:31.804Z,79.54
2016-12-13T08:08:31.815Z,79.83
2016-12-13T08:09:31.839Z,79.92
2016-12-13T08:10:31.846Z,79.92
2016-12-13T08:11:31.860Z,80.11
2016-12-13T08:12:31.871Z,79.44
2016-12-13T08:13:31.885Z,79.92
2016-12-13T08:14:32.039Z,80.11
2016-12-13T08:15:32.055Z,80.02
2016-12-13T08:16:32.042Z,79.92
2016-12-13T08:17:31.944Z,79.63
2016-12-13T08:18:31.952Z,79.83
2016-12-13T08:19:31.969Z,80.02
2016-12-13T08:20:31.986Z,79.63
2016-12-13T08:21:31.996Z,80.11
2016-12-13T08:22:32.010Z,80.21
2016-12-13T08:23:32.024Z,80.11
2016-12-13T08:24:32.037Z,79.92
2016-12-13T08:25:32.050Z,80.02
2016-12-13T08:26:32.067Z,79.73
2016-12-13T08:27:32.080Z,79.73
2016-12-13T08:28:32.092Z,80.21
2016-12-13T08:29:32.110Z,80.02
2016-12-13T08:30:32.120Z,79.73
2016-12-13T08:31:32.137Z,79.63
2016-12-13T08:32:32.152Z,79.63
2016-12-13T08:33:32.159Z,79.73
2016-12-13T08:34:32.174Z,79.73
2016-12-13T08:35:32.187Z,80.11
2016-12-13T08:36:32.204Z,80.02
2016-12-13T08:37:32.220Z,80.11
2016-12-13T08:38:32.233Z,79.63
2016-12-13T08:39:32.245Z,80.02
2016-12-13T08:40:32.255Z,80.11
2016-12-13T08:41:32.298Z,79.83
2016-12-13T08:42:32.288Z,80.02
2016-12-13T08:43:32.303Z,80.11
2016-12-13T08:44:32.313Z,79.96
2016-12-13T08:45:32.330Z,79.77
2016-12-13T08:46:32.342Z,79.63
2016-12-13T08:47:32.361Z,79.58
2016-12-13T08:48:32.372Z,80.11
2016-12-13T08:49:32.382Z,80.15
2016-12-13T08:50:32.399Z,80.05
2016-12-13T08:51:32.412Z,79.68
2016-12-13T08:52:32.460Z,79.77
2016-12-13T08:53:32.444Z,79.68
2016-12-13T08:54:32.455Z,79.86
2016-12-13T08:55:32.469Z,79.77
2016-12-13T08:56:32.485Z,79.68
2016-12-13T08:57:32.499Z,79.58
2016-12-13T08:58:32.512Z,79.68
2016-12-13T08:59:32.525Z,79.77
2016-12-13T09:00:32.537Z,79.68
2016-12-13T09:01:32.554Z,79.58
2016-12-13T09:02:32.568Z,79.58
2016-12-13T09:03:32.582Z,79.86
2016-12-13T09:04:32.597Z,79.49
2016-12-13T09:05:32.611Z,79.68
2016-12-13T09:06:32.625Z,79.58
2016-12-13T09:07:32.640Z,79.49
2016-12-13T09:08:32.653Z,79.86
2016-12-13T09:09:32.669Z,79.68
2016-12-13T09:10:32.733Z,79.58
2016-12-13T09:11:32.696Z,79.77
2016-12-13T09:12:32.714Z,79.96
2016-12-13T09:13:32.727Z,79.68
2016-12-13T09:14:32.738Z,79.77
2016-12-13T09:15:32.757Z,79.68
2016-12-13T09:16:32.768Z,79.68
2016-12-13T09:17:32.788Z,79.49
2016-12-13T09:18:32.794Z,79.68
2016-12-13T09:19:32.810Z,79.86
2016-12-13T09:20:32.827Z,79.68
2016-12-13T09:21:32.841Z,79.68
2016-12-13T09:22:32.850Z,79.68
2016-12-13T09:23:32.867Z,79.68
2016-12-13T09:24:32.879Z,79.77
2016-12-13T09:25:32.896Z,79.58
2016-12-13T09:26:32.910Z,79.77
2016-12-13T09:27:32.932Z,79.58
2016-12-13T09:28:32.935Z,79.39
2016-12-13T09:29:32.951Z,79.49
2016-12-13T09:30:32.964Z,79.86
2016-12-13T09:31:33.109Z,79.49
2016-12-13T09:32:33.080Z,79.86
2016-12-13T09:33:33.106Z,79.3
2016-12-13T09:34:33.156Z,79.49
2016-12-13T09:35:33.143Z,79.49
2016-12-13T09:36:33.052Z,79.68
2016-12-13T09:37:33.067Z,79.49
2016-12-13T09:38:33.171Z,79.77
2016-12-13T09:39:33.121Z,79.49
2016-12-13T09:40:33.194Z,79.58
2016-12-13T09:41:33.188Z,79.39
2016-12-13T09:42:33.141Z,79.68
2016-12-13T09:43:33.151Z,79.49
2016-12-13T09:44:33.166Z,79.52
2016-12-13T09:45:33.183Z,79.72
2016-12-13T09:46:33.193Z,79.58
2016-12-13T09:47:33.208Z,79.58
2016-12-13T09:48:33.222Z,79.39
2016-12-13T09:49:33.237Z,79.52
2016-12-13T09:50:33.251Z,79.52
2016-12-13T09:51:33.263Z,79.33
2016-12-13T09:52:33.331Z,79.81
2016-12-13T09:53:33.295Z,78.86
2016-12-13T09:54:33.316Z,78.86
2016-12-13T09:55:33.327Z,78.77
2016-12-13T09:56:33.337Z,78.96
2016-12-13T09:57:33.352Z,79.43
2016-12-13T09:58:33.372Z,78.86
2016-12-13T09:59:33.384Z,79.05
2016-12-13T10:00:33.397Z,79.33
2016-12-13T10:01:33.410Z,79.24
2016-12-13T10:02:33.426Z,78.86
2016-12-13T10:03:33.437Z,78.86
2016-12-13T10:04:33.457Z,78.77
2016-12-13T10:05:33.470Z,79.24
2016-12-13T10:06:33.485Z,79.05
2016-12-13T10:07:33.500Z,78.96
2016-12-13T10:08:33.510Z,79.05
2016-12-13T10:09:33.528Z,79.14
2016-12-13T10:10:33.541Z,79.14
2016-12-13T10:11:33.557Z,79.05
2016-12-13T10:12:33.570Z,78.86
2016-12-13T10:13:33.589Z,79.24
2016-12-13T10:14:33.602Z,79.05
2016-12-13T10:15:33.612Z,79.14
2016-12-13T10:16:33.630Z,79.05
2016-12-13T10:17:33.643Z,79.14
2016-12-13T10:18:33.662Z,79.33
2016-12-13T10:19:33.671Z,79.05
2016-12-13T10:20:33.688Z,78.86
2016-12-13T10:21:33.704Z,78.77
2016-12-13T10:22:33.717Z,78.48
2016-12-13T10:23:33.733Z,78.48
2016-12-13T10:24:33.747Z,78.48
2016-12-13T10:25:33.763Z,78.86
2016-12-13T10:26:33.773Z,78.67
2016-12-13T10:27:33.791Z,78.38
2016-12-13T10:28:33.809Z,78.48
2016-12-13T10:29:33.821Z,78.67
2016-12-13T10:30:33.836Z,78.29
2016-12-13T10:31:33.851Z,78.67
2016-12-13T10:32:33.869Z,78.96
2016-12-13T10:33:33.881Z,78.29
2016-12-13T10:34:33.895Z,78.29
2016-12-13T10:35:33.910Z,78.38
2016-12-13T10:36:33.928Z,78.38
2016-12-13T10:37:34.270Z,78.42
2016-12-13T10:38:33.959Z,78.38
2016-12-13T10:39:33.969Z,78.42
2016-12-13T10:40:33.988Z,78.33
2016-12-13T10:41:34.001Z,78.52
2016-12-13T10:42:34.042Z,78.42
2016-12-13T10:43:34.032Z,78.14
2016-12-13T10:44:34.041Z,78.42
2016-12-13T10:45:34.061Z,78.52
2016-12-13T10:46:34.074Z,78.42
2016-12-13T10:47:34.088Z,78.33
2016-12-13T10:48:34.155Z,78.23
2016-12-13T10:49:34.116Z,78.61
2016-12-13T10:50:34.137Z,78.23
2016-12-13T10:51:34.153Z,78.14
2016-12-13T10:52:34.160Z,78.14
2016-12-13T10:53:34.176Z,78.04
2016-12-13T10:54:34.198Z,78.33
2016-12-13T10:55:34.211Z,78.23
2016-12-13T10:56:34.227Z,78.33
2016-12-13T10:57:34.236Z,77.76
2016-12-13T10:58:34.252Z,78.04
2016-12-13T10:59:34.269Z,77.95
2016-12-13T11:00:34.283Z,78.14
2016-12-13T11:01:34.296Z,78.14
2016-12-13T11:02:34.313Z,77.76
2016-12-13T11:03:34.329Z,78.14
2016-12-13T11:04:34.340Z,78.33
2016-12-13T11:05:34.381Z,77.85
2016-12-13T11:06:34.379Z,77.85
2016-12-13T11:07:34.402Z,77.85
2016-12-13T11:08:34.407Z,77.95
2016-12-13T11:09:34.420Z,77.95
2016-12-13T11:10:34.434Z,77.95
2016-12-13T11:11:34.459Z,78.04
2016-12-13T11:12:34.466Z,77.95
2016-12-13T11:13:34.485Z,78.14
2016-12-13T11:14:34.494Z,77.85
2016-12-13T11:15:34.537Z,77.95
2016-12-13T11:16:34.526Z,78.14
2016-12-13T11:17:34.541Z,78.23
2016-12-13T11:18:34.868Z,78.04
2016-12-13T11:19:34.573Z,78.04
2016-12-13T11:20:34.585Z,78.23
2016-12-13T11:21:34.601Z,77.56
2016-12-13T11:22:34.614Z,77.95
2016-12-13T11:23:34.632Z,77.19
2016-12-13T11:24:34.653Z,77.19
2016-12-13T11:25:34.658Z,77.47
2016-12-13T11:26:34.678Z,77.66
2016-12-13T11:27:34.698Z,78.04
2016-12-13T11:28:34.708Z,78.23
2016-12-13T11:29:34.723Z,77.47
2016-12-13T11:30:34.736Z,77.47
2016-12-13T11:31:34.781Z,78.23
2016-12-13T11:32:34.767Z,77.95
2016-12-13T11:33:34.784Z,77.28
2016-12-13T11:34:34.796Z,77.76
2016-12-13T11:35:34.813Z,77.85
2016-12-13T11:36:34.832Z,77.76
2016-12-13T11:37:34.845Z,77.85
2016-12-13T11:38:34.860Z,77.95
2016-12-13T11:39:34.876Z,77.85
2016-12-13T11:40:34.891Z,77.47
2016-12-13T11:41:34.905Z,77.19
2016-12-13T11:42:35.236Z,77.37
2016-12-13T11:43:34.937Z,77.47
2016-12-13T11:44:34.953Z,77.37
2016-12-13T11:45:34.964Z,77.37
2016-12-13T11:46:34.982Z,77.37
2016-12-13T11:47:34.994Z,77.47
2016-12-13T11:48:35.012Z,77.66
2016-12-13T11:49:35.028Z,77.76
2016-12-13T11:50:35.045Z,77.28
2016-12-13T11:51:35.057Z,77.56
2016-12-13T11:52:35.096Z,77.28
2016-12-13T11:53:35.088Z,77.28
2016-12-13T11:54:35.105Z,77.28
2016-12-13T11:55:35.116Z,77.56
2016-12-13T11:56:35.135Z,77.47
2016-12-13T11:57:35.153Z,77.66
2016-12-13T11:58:35.164Z,77.28
2016-12-13T11:59:35.182Z,77.37
2016-12-13T12:00:35.198Z,77.37
2016-12-13T12:01:35.211Z,77.28
2016-12-13T12:02:35.226Z,77.28
2016-12-13T12:03:35.241Z,77.28
2016-12-13T12:04:35.260Z,77.19
2016-12-13T12:05:35.276Z,77.19
2016-12-13T12:06:35.291Z,77.37
2016-12-13T12:07:35.302Z,77.37
2016-12-13T12:08:35.320Z,77.28
2016-12-13T12:09:35.338Z,77.37
2016-12-13T12:10:35.349Z,77.47
2016-12-13T12:11:35.369Z,77.61
2016-12-13T12:12:35.381Z,77.47
2016-12-13T12:13:35.397Z,77.32
2016-12-13T12:14:35.412Z,76.94
2016-12-13T12:15:35.429Z,77.03
2016-12-13T12:16:35.443Z,77.13
2016-12-13T12:17:35.460Z,76.9
2016-12-13T12:18:35.475Z,77.32
2016-12-13T12:19:35.489Z,77
2016-12-13T12:20:35.506Z,76.81
2016-12-13T12:21:35.519Z,77.22
2016-12-13T12:22:35.536Z,76.94
2016-12-13T12:23:35.552Z,77.22
2016-12-13T12:24:35.566Z,77.51
2016-12-13T12:25:35.583Z,77.51
2016-12-13T12:26:35.597Z,77.22
2016-12-13T12:27:35.637Z,77.42
2016-12-13T12:28:35.627Z,77.32
2016-12-13T12:29:35.648Z,77.22
2016-12-13T12:30:35.658Z,77.42
2016-12-13T12:31:35.673Z,77.32
2016-12-13T12:32:35.692Z,76.75
2016-12-13T12:33:35.706Z,76.94
2016-12-13T12:34:35.721Z,76.94
2016-12-13T12:35:35.812Z,77.03
2016-12-13T12:36:35.822Z,76.56
2016-12-13T12:37:35.873Z,77.22
2016-12-13T12:38:35.903Z,76.84
2016-12-13T12:39:35.888Z,76.94
2016-12-13T12:40:35.895Z,76.84
2016-12-13T12:41:35.919Z,76.94
2016-12-13T12:42:35.929Z,76.94
2016-12-13T12:43:35.959Z,77.03
2016-12-13T12:44:35.878Z,77.13
2016-12-13T12:45:35.892Z,77.03
2016-12-13T12:46:35.909Z,76.94
2016-12-13T12:47:35.956Z,76.84
2016-12-13T12:48:35.937Z,76.65
2016-12-13T12:49:35.954Z,76.46
2016-12-13T12:50:35.972Z,77.03
2016-12-13T12:51:35.986Z,77.03
2016-12-13T12:52:35.999Z,76.18
2016-12-13T12:53:36.015Z,76.46